Aérodrome :
LOGIN :

S'inscrire | Disclaimer

   EN    FR    IT 

 










Légende :    VFR   VFR Marginal   IFR   IFR Intensif   IFR Très Intensif
Visi : 
Plafond : 
>= 8 km
>= 3000ft
5 à 8 km
1000 à 3000 ft
1500m à 5 km
500 à 1000 ft
800 à 1500m
200 à 500 ft
< 800m
< 200 ft
Symboles :   Orages  Brouillard  Fortes neiges  Fortes précipitations  Vent > 20 kt
SIGMETs :   Divers  Orages  Givrage  Turbulence  Onde Orograph.  Cendres Volcan.






- Altitude de l'aérodrome : 17 ft
- Code IATA : KLR


ESMQ - Kalmar

DERNIER METAR :
  • 131020Z VRB03KT 9999 FEW011 SCT032 OVC037 07/05 Q1003

METARs EXPIRÉS :
  • 130950Z 17005KT 9999 SCT013 BKN040 07/06 Q1003
  • 130920Z 16004KT 9999 FEW018 07/06 Q1003
  • 130850Z 19003KT 9999 FEW018 BKN020 BKN028 06/05 Q1003
  • 130820Z 16004KT 9999 FEW017 SCT025 BKN030 06/05 Q1003
  • 130750Z 13004KT 9999 FEW016 BKN020 OVC027 06/05 Q1003

TAF TAF ESMQ
Valide du 13 à 09h jusqu'au 13 à 18h UTC


130830Z 1309/1318 15004KT 9999 SCT018 BKN070



MET'MAP, la Météo Aéronautique d'un coup d'oeil ! - Copyright ORBIFLY Décembre 2007 - Disclaimer

ORBIFLY MET'MAP TEAM :

Programmation & Développement : Alexandra Zaïnal
Conception & Développement : Baudouin d'Aumeries
Co-Programmation & Développement : Marc-Olivier Méhu
Soutien technique & logistique : Manuel Goepfert

Contact : metmap@orbifly.com




SOURCES & CREDITS :

   NOAA